Estación de Curicó

Ultimos registro cada 15 minutos 71
Estación Fecha / Hora Temperatura Humedad Lluvia Velocidad Dirección Radiación Presion
71 Curicó 05-05-2026 17:30 16,2 74,7 0 0 282 10,6 987,6
70 Curicó 05-05-2026 17:15 16,6 73,6 0 0 291 16,9 987,2
69 Curicó 05-05-2026 17:00 17,4 69,3 0 0,3 286 31,9 986,9
68 Curicó 05-05-2026 16:45 17,9 67,7 0 0 352 34,4 987,1
67 Curicó 05-05-2026 16:30 18,2 67,8 0 0 34 48,1 986,9
66 Curicó 05-05-2026 16:15 18,6 67,2 0 0 35 68,1 986,8
65 Curicó 05-05-2026 16:00 18,5 67,3 0 0,3 42 90,6 986,5
64 Curicó 05-05-2026 15:45 18,8 66,5 0 0 58 101,9 986,5
63 Curicó 05-05-2026 15:30 19 65 0 0 55 108,1 986,6
62 Curicó 05-05-2026 15:15 18,7 67,5 0 0,3 41 121,9 986,4
61 Curicó 05-05-2026 15:00 18,7 67,9 0 0,3 53 141,9 986,3
60 Curicó 05-05-2026 14:45 18,7 67,8 0 0,3 70 159,4 986,1
59 Curicó 05-05-2026 14:30 18,5 68,2 0 0,3 77 159,4 986
58 Curicó 05-05-2026 14:15 18,6 67,2 0 0 52 144,4 986,4
57 Curicó 05-05-2026 14:00 18,2 68,6 0 0 42 159,4 986,3
56 Curicó 05-05-2026 13:45 18 68 0 0 343 149,4 986,1
55 Curicó 05-05-2026 13:30 18,3 67,9 0 0 7 184,4 986,2
54 Curicó 05-05-2026 13:15 17,9 70,4 0 0,3 15 169,4 986,1
53 Curicó 05-05-2026 13:00 17,7 71,8 0 0 6 175,6 986,2
52 Curicó 05-05-2026 12:45 17,6 71,9 0 0 0 160,6 986,6
51 Curicó 05-05-2026 12:30 17,4 71,9 0 0 0 185,6 986,3
50 Curicó 05-05-2026 12:15 17,3 72,3 0 0 8 211,9 986,4
49 Curicó 05-05-2026 12:00 17,6 72,5 0 0,3 10 256,9 986,4
48 Curicó 05-05-2026 11:45 16,8 74,6 0 0,3 347 218,1 986,6
47 Curicó 05-05-2026 11:30 17,4 74,8 0 0,3 350 246,9 986,8
46 Curicó 05-05-2026 11:15 16,8 77,8 0 0,3 288 304,4 986,5
45 Curicó 05-05-2026 11:00 15,9 78,6 0 0,7 305 221,9 987
44 Curicó 05-05-2026 10:45 16 79,4 0 0,3 295 255,6 986,9
43 Curicó 05-05-2026 10:30 15,9 79,1 0 0 204 180,6 986,9
42 Curicó 05-05-2026 10:15 15,6 81,7 0 0 199 199,4 987,1
41 Curicó 05-05-2026 10:00 14,4 84,9 0 0 184 200,6 987,3
40 Curicó 05-05-2026 09:45 13,4 88,8 0 0,3 206 204,4 987,2
39 Curicó 05-05-2026 09:30 12,7 91,5 0 0,7 161 119,4 987,5
38 Curicó 05-05-2026 09:15 12,2 94,1 0 0,3 218 116,9 987,2
37 Curicó 05-05-2026 09:00 11,4 95 0 0,7 289 76,9 987
36 Curicó 05-05-2026 08:45 11,2 95,5 0 0 324 81,9 986,8
35 Curicó 05-05-2026 08:30 10,7 95,5 0 0 324 43,1 986,8
34 Curicó 05-05-2026 08:15 10,5 95,8 0 0,7 298 26,9 986,9
33 Curicó 05-05-2026 08:00 10,5 95,9 0 0,3 227 16,9 987,4
32 Curicó 05-05-2026 07:45 10,6 96,2 0 0,7 56 5,6 987,1
31 Curicó 05-05-2026 07:30 10,2 96,6 0 0,7 62 0,6 987,4
30 Curicó 05-05-2026 07:15 10,1 97,1 0 0,3 44 0,6 988,1
29 Curicó 05-05-2026 07:00 9,8 97,3 0 0,3 45 0,6 988,1
28 Curicó 05-05-2026 06:45 9,8 97,2 0 0,3 34 0,6 988,9
27 Curicó 05-05-2026 06:30 9,7 97,3 0 0,3 59 0,6 989
26 Curicó 05-05-2026 06:15 9,5 97,3 0 0,3 27 0,6 988,9
25 Curicó 05-05-2026 06:00 9,4 97,3 0 0,3 257 0,6 989,3
24 Curicó 05-05-2026 05:45 9,2 97,2 0 0 4 0,6 988,8
23 Curicó 05-05-2026 05:30 8,9 97,2 0 0 0 0,6 988,8
22 Curicó 05-05-2026 05:15 8,6 97,2 0 0 0 0,6 989
21 Curicó 05-05-2026 05:00 8,6 97,1 0 0 49 0,6 989,3
20 Curicó 05-05-2026 04:45 8,7 96,9 0 0 77 0,6 988,9
19 Curicó 05-05-2026 04:30 8,6 96,9 0 0 88 0,6 989,4
18 Curicó 05-05-2026 04:15 8,5 97 0 0 101 0,6 988,5
17 Curicó 05-05-2026 04:00 8,4 96,8 0 0 136 0,6 988
16 Curicó 05-05-2026 03:45 8,2 96,8 0 0 136 0,6 988,7
15 Curicó 05-05-2026 03:30 8,1 96,8 0 0 136 0,6 988,3
14 Curicó 05-05-2026 03:15 8 96,5 0 0 136 0,6 988,7
13 Curicó 05-05-2026 03:00 8 96,5 0 0 136 0,6 988,7
12 Curicó 05-05-2026 02:45 8 96,5 0 0 136 0,6 988,7
11 Curicó 05-05-2026 02:30 8,1 96,4 0 0 136 0,6 989,1
10 Curicó 05-05-2026 02:15 8,1 96,3 0 0 136 0,6 989,2
9 Curicó 05-05-2026 02:00 7,8 96,3 0 0 136 0,6 988,9
8 Curicó 05-05-2026 01:45 7,8 96,1 0 0 136 0,6 989
7 Curicó 05-05-2026 01:30 7,6 96,3 0 0 136 0,6 989,2
6 Curicó 05-05-2026 01:15 7,2 96 0 0 136 0,6 989,3
5 Curicó 05-05-2026 01:00 6,6 96,1 0 0 136 0,6 989,4
4 Curicó 05-05-2026 00:45 6,2 95,8 0 0 136 0,6 989,4
3 Curicó 05-05-2026 00:30 6,4 95,3 0 0 136 0,6 989,5
2 Curicó 05-05-2026 00:15 7,1 95,6 0 0 136 0,6 989,4
1 Curicó 05-05-2026 00:00 7,1 95,3 0 0 136 0,6 989,6